Time;durP1;ratioP1;P1;durP2;ratioP2;P2;SDS_P1;SDS_P2;PMS_P1;PMS_P2;Temp;Humidity;BMP_temperature;BMP_pressure;BME280_temperature;BME280_humidity;BME280_pressure;Samples;Min_cycle;Max_cycle;Signal;HPM_P1;HPM_P2
2022/07/16 00:06:16;;;;;;;1.35;0.40;;;;;;;;;;21060317;28;20210;-77
2022/07/16 00:16:18;;;;;;;0.93;0.40;;;;;;;;;;21077264;28;20215;-75
2022/07/16 00:26:19;;;;;;;0.85;0.40;;;;;;;;;;21076322;28;20208;-76
2022/07/16 00:36:21;;;;;;;1.27;0.70;;;;;;;;;;21077146;28;20209;-75
2022/07/16 00:46:23;;;;;;;2.92;0.60;;;;;;;;;;21075086;28;20201;-76
2022/07/16 00:56:25;;;;;;;0.85;0.38;;;21.40;86.00;;;;;;21072738;28;20217;-77
2022/07/16 01:06:28;;;;;;;1.48;0.70;;;;;;;;;;21074488;28;20211;-78
2022/07/16 01:16:30;;;;;;;1.73;0.47;;;;;;;;;;21074130;28;20212;-77
2022/07/16 01:26:32;;;;;;;1.42;0.65;;;;;;;;;;21073426;28;20195;-77
2022/07/16 01:36:33;;;;;;;2.28;0.68;;;;;;;;;;21070702;28;20215;-77
2022/07/16 01:46:35;;;;;;;0.80;0.50;;;;;;;;;;21070724;28;20226;-77
2022/07/16 01:56:37;;;;;;;0.80;0.57;;;;;;;;;;21070600;28;20237;-77
2022/07/16 02:06:39;;;;;;;2.45;0.55;;;;;;;;;;21069459;28;20748;-77
2022/07/16 02:16:41;;;;;;;2.00;0.70;;;;;;;;;;21051617;28;20649;-78
2022/07/16 02:26:43;;;;;;;1.92;0.70;;;;;;;;;;21067959;28;20211;-77
2022/07/16 02:36:44;;;;;;;1.37;0.70;;;;;;;;;;21059671;28;20219;-77
2022/07/16 02:46:46;;;;;;;2.83;0.73;;;;;;;;;;21084558;28;20766;-77
2022/07/16 02:56:48;;;;;;;4.07;0.90;;;;;;;;;;21066385;28;20221;-77
2022/07/16 03:06:49;;;;;;;0.87;0.50;;;;;;;;;;21084029;28;20201;-77
2022/07/16 03:16:51;;;;;;;1.27;0.70;;;;;;;;;;21019146;22;20802;-72
2022/07/16 03:26:53;;;;;;;5.10;0.90;;;;;;;;;;20830915;28;20265;-72
2022/07/16 03:36:54;;;;;;;2.37;0.80;;;;;;;;;;20814907;28;20231;-72
2022/07/16 03:46:56;;;;;;;1.20;0.60;;;;;;;;;;20831074;28;20514;-72
2022/07/16 03:56:58;;;;;;;0.80;0.57;;;;;;;;;;20813296;28;20213;-72
2022/07/16 04:07:00;;;;;;;2.90;0.90;;;;;;;;;;20830169;28;20207;-71
2022/07/16 04:17:01;;;;;;;3.60;1.10;;;;;;;;;;20827379;28;20701;-72
2022/07/16 04:27:04;;;;;;;12.50;1.30;;;;;;;;;;20829063;28;20252;-73
2022/07/16 04:37:05;;;;;;;1.30;0.70;;;;;;;;;;20827082;28;20226;-72
2022/07/16 04:47:07;;;;;;;2.00;1.10;;;;;;;;;;20826426;28;20287;-71
2022/07/16 04:57:09;;;;;;;3.70;0.90;;;;;;;;;;20807382;28;20234;-69
2022/07/16 05:07:11;;;;;;;3.50;0.77;;;;;;;;;;20825284;28;20287;-71
2022/07/16 05:17:13;;;;;;;2.10;0.80;;;;;;;;;;20824685;28;20236;-71
2022/07/16 05:27:15;;;;;;;2.30;0.70;;;;;;;;;;20821607;28;20202;-67
2022/07/16 05:37:17;;;;;;;2.13;0.47;;;;;;;;;;20806880;28;20220;-68
2022/07/16 05:47:18;;;;;;;1.90;0.70;;;;;;;;;;20816124;28;20217;-67
2022/07/16 05:57:20;;;;;;;1.30;0.80;;;;;;;;;;20803755;28;20600;-69
2022/07/16 06:07:22;;;;;;;0.87;0.57;;;;;;;;;;20821134;28;20224;-67
2022/07/16 06:17:24;;;;;;;0.90;0.57;;;;;;;;;;20819551;28;20221;-68
2022/07/16 06:27:25;;;;;;;0.60;0.50;;;;;;;;;;20805623;28;20352;-70
2022/07/16 06:37:27;;;;;;;1.57;0.60;;;;;;;;;;20816503;28;20271;-67
2022/07/16 06:47:29;;;;;;;1.20;0.50;;;;;;;;;;20815564;28;20689;-68
2022/07/16 06:57:30;;;;;;;1.53;0.57;;;;;;;;;;20819556;28;20222;-69
2022/07/16 07:07:33;;;;;;;1.33;0.60;;;;;;;;;;20818891;28;20223;-69
2022/07/16 07:17:34;;;;;;;1.57;0.70;;;;;;;;;;20811350;28;20277;-69
2022/07/16 07:27:36;;;;;;;2.37;1.50;;;;;;;;;;20830160;28;20276;-68
2022/07/16 07:37:38;;;;;;;1.43;0.50;;;;;;;;;;20832096;28;20250;-69
2022/07/16 07:47:39;;;;;;;1.40;0.50;;;;;;;;;;20825315;28;20261;-69
2022/07/16 07:57:42;;;;;;;1.60;0.47;;;;;;;;;;20818947;28;20217;-69
2022/07/16 08:07:44;;;;;;;0.75;0.40;;;;;;;;;;20827074;28;20268;-69
2022/07/16 08:17:46;;;;;;;1.10;0.40;;;;;;;;;;20825534;28;20217;-69
2022/07/16 08:27:47;;;;;;;0.30;0.30;;;;;;;;;;20825404;28;20205;-71
2022/07/16 08:37:49;;;;;;;1.70;0.63;;;;;;;;;;20817992;28;20277;-69
2022/07/16 08:48:14;;;;;;;0.40;0.35;;;;;;;;;;20668402;28;20277;-68
2022/07/16 08:58:16;;;;;;;3.38;0.73;;;;;;;;;;20817831;28;20218;-69
2022/07/16 09:08:18;;;;;;;1.85;0.40;;;;;;;;;;20815304;28;20288;-69
2022/07/16 09:18:24;;;;;;;2.67;0.73;;;;;;;;;;20929363;22;20279;-70
2022/07/16 09:28:27;;;;;;;1.27;0.50;;;;;;;;;;21065863;28;20547;-71
2022/07/16 09:38:29;;;;;;;0.85;0.38;;;;;;;;;;21025751;28;20221;-72
2022/07/16 09:48:37;;;;;;;2.00;0.30;;;24.80;77.40;;;;;;21064836;28;20235;-72
2022/07/16 09:58:39;;;;;;;4.40;0.80;;;;;;;;;;21067673;28;20281;-72
2022/07/16 10:08:43;;;;;;;0.68;0.40;;;25.20;81.50;;;;;;21052724;28;20621;-73
2022/07/16 10:18:58;;;;;;;0.30;0.30;;;25.60;79.20;;;;;;21057648;28;20212;-72
2022/07/16 10:29:01;;;;;;;0.93;0.40;;;;;;;;;;21062502;28;20204;-72
2022/07/16 10:39:04;;;;;;;0.45;0.30;;;;;;;;;;21058393;28;20759;-73
2022/07/16 10:49:13;;;;;;;0.93;0.47;;;;;;;;;;21060494;28;20324;-73
2022/07/16 10:59:23;;;;;;;0.73;0.43;;;26.50;76.10;;;;;;21059903;28;20606;-71
2022/07/16 11:09:32;;;;;;;0.65;0.43;;;;;;;;;;21079507;28;20210;-72
2022/07/16 11:19:38;;;;;;;0.50;0.40;;;26.50;75.50;;;;;;21080034;28;20781;-73
2022/07/16 11:29:40;;;;;;;0.38;0.35;;;;;;;;;;21080519;28;20743;-72
2022/07/16 11:39:42;;;;;;;0.77;0.47;;;;;;;;;;21080598;28;20244;-71
2022/07/16 11:49:45;;;;;;;1.00;0.50;;;26.20;77.10;;;;;;21079431;28;20230;-72
2022/07/16 11:59:51;;;;;;;0.77;0.40;;;;;;;;;;21078735;28;20258;-72
2022/07/16 12:09:54;;;;;;;0.60;0.40;;;27.60;74.70;;;;;;21078254;28;20211;-72
2022/07/16 12:20:15;;;;;;;0.68;0.38;;;;;;;;;;21076468;28;20762;-71
2022/07/16 12:30:17;;;;;;;0.40;0.30;;;;;;;;;;21078424;28;20207;-71
2022/07/16 12:40:19;;;;;;;1.08;0.50;;;;;;;;;;21076676;28;20222;-72
2022/07/16 12:50:21;;;;;;;1.00;0.60;;;;;;;;;;21074154;28;20237;-71
2022/07/16 13:00:23;;;;;;;0.90;0.40;;;;;;;;;;21065780;28;20249;-71
2022/07/16 13:10:24;;;;;;;0.77;0.47;;;;;;;;;;21067271;28;20260;-71
2022/07/16 13:20:26;;;;;;;1.48;0.45;;;;;;;;;;21050044;28;20223;-71
2022/07/16 13:30:28;;;;;;;1.52;0.60;;;;;;;;;;21068092;28;20208;-69
2022/07/16 13:40:32;;;;;;;1.02;0.40;;;;;;;;;;21049114;28;20230;-72
2022/07/16 13:50:34;;;;;;;0.73;0.35;;;;;;;;;;21047285;28;20216;-70
2022/07/16 14:00:36;;;;;;;0.40;0.30;;;;;;;;;;21048661;28;20231;-70
2022/07/16 14:10:39;;;;;;;1.50;0.40;;;;;;;;;;21053956;28;20290;-69
2022/07/16 14:20:42;;;;;;;0.80;0.40;;;29.40;75.10;;;;;;21047948;28;20564;-70
2022/07/16 14:30:44;;;;;;;0.68;0.50;;;;;;;;;;21065137;28;20207;-69
2022/07/16 14:40:46;;;;;;;0.70;0.40;;;;;;;;;;21065254;28;20318;-70
2022/07/16 14:50:47;;;;;;;1.00;0.40;;;;;;;;;;21031773;28;20698;-70
2022/07/16 15:00:50;;;;;;;0.75;0.43;;;;;;;;;;21066997;28;20630;-71
2022/07/16 15:10:52;;;;;;;0.55;0.32;;;;;;;;;;21046713;28;20295;-72
2022/07/16 15:20:54;;;;;;;1.58;0.40;;;;;;;;;;21040956;22;20221;-68
2022/07/16 15:30:56;;;;;;;0.82;0.50;;;;;;;;;;20990552;28;20250;-70
2022/07/16 15:40:58;;;;;;;0.55;0.40;;;;;;;;;;21066192;28;20219;-69
2022/07/16 15:51:00;;;;;;;0.63;0.52;;;29.80;65.50;;;;;;21032593;28;20610;-73
2022/07/16 16:01:02;;;;;;;0.88;0.50;;;;;;;;;;21036243;28;20215;-69
2022/07/16 16:11:04;;;;;;;1.20;0.50;;;;;;;;;;21064965;28;20224;-67
2022/07/16 16:21:05;;;;;;;1.08;0.40;;;;;;;;;;21061787;28;20228;-67
2022/07/16 16:31:07;;;;;;;0.82;0.40;;;;;;;;;;21061930;28;20546;-67
2022/07/16 16:41:09;;;;;;;1.40;0.60;;;;;;;;;;21075271;28;20282;-67
2022/07/16 16:51:11;;;;;;;0.75;0.50;;;;;;;;;;21008849;28;20638;-67
2022/07/16 17:01:13;;;;;;;1.38;0.50;;;;;;;;;;21006340;28;20232;-69
2022/07/16 17:11:16;;;;;;;1.58;0.60;;;;;;;;;;21015794;28;20658;-69
2022/07/16 17:21:17;;;;;;;2.05;0.35;;;;;;;;;;21052479;28;20276;-73
2022/07/16 17:31:19;;;;;;;2.20;0.40;;;;;;;;;;21044975;28;20722;-70
2022/07/16 17:41:21;;;;;;;2.30;0.50;;;;;;;;;;21061927;28;20224;-69
2022/07/16 17:51:22;;;;;;;0.82;0.60;;;;;;;;;;21041701;28;20219;-69
2022/07/16 18:01:25;;;;;;;0.90;0.40;;;;;;;;;;21060456;28;20208;-72
2022/07/16 18:11:27;;;;;;;0.82;0.40;;;;;;;;;;21042120;28;20551;-71
2022/07/16 18:21:29;;;;;;;0.70;0.40;;;;;;;;;;21048309;28;20359;-70
2022/07/16 18:31:31;;;;;;;0.65;0.50;;;;;;;;;;21049682;28;20216;-70
2022/07/16 18:41:33;;;;;;;0.80;0.40;;;;;;;;;;21034740;28;20315;-68
2022/07/16 18:51:34;;;;;;;1.90;0.50;;;;;;;;;;21056148;28;20208;-68
2022/07/16 19:01:36;;;;;;;1.23;0.70;;;;;;;;;;21064749;28;20219;-71
2022/07/16 19:11:38;;;;;;;0.30;0.30;;;;;;;;;;21066732;28;20679;-68
2022/07/16 19:21:40;;;;;;;1.23;0.50;;;;;;;;;;21076618;28;20239;-68
2022/07/16 19:31:43;;;;;;;0.57;0.35;;;;;;;;;;21078925;28;20322;-70
2022/07/16 19:41:44;;;;;;;1.25;0.43;;;;;;;;;;21036275;28;20614;-68
2022/07/16 19:51:46;;;;;;;1.02;0.35;;;;;;;;;;20986157;28;20628;-68
2022/07/16 20:01:50;;;;;;;2.10;0.40;;;;;;;;;;20992341;28;20288;-69
2022/07/16 20:12:01;;;;;;;1.55;0.45;;;;;;;;;;20987902;28;20217;-69
2022/07/16 20:22:02;;;;;;;1.90;0.40;;;;;;;;;;20987919;28;20219;-68
2022/07/16 20:32:04;;;;;;;0.75;0.47;;;25.70;71.90;;;;;;20987525;28;20571;-68
2022/07/16 20:42:06;;;;;;;0.60;0.40;;;;;;;;;;20986766;28;20276;-69
2022/07/16 20:52:08;;;;;;;0.82;0.40;;;;;;;;;;20985498;28;20274;-69
2022/07/16 21:02:10;;;;;;;1.27;0.50;;;;;;;;;;20984060;28;20722;-69
2022/07/16 21:12:12;;;;;;;1.33;0.40;;;;;;;;;;20984176;28;20209;-69
2022/07/16 21:22:13;;;;;;;5.80;0.45;;;;;;;;;;21048106;22;20225;-74
2022/07/16 21:32:15;;;;;;;0.63;0.40;;;;;;;;;;21122890;28;20577;-74
2022/07/16 21:42:17;;;;;;;0.70;0.38;;;;;;;;;;21134780;28;20214;-73
2022/07/16 21:52:18;;;;;;;2.10;0.35;;;;;;;;;;21156317;28;20252;-76
2022/07/16 22:02:20;;;;;;;0.40;0.30;;;;;;;;;;21154174;28;20567;-76
2022/07/16 22:12:22;;;;;;;0.60;0.40;;;;;;;;;;21152883;28;20211;-76
2022/07/16 22:22:23;;;;;;;1.10;0.70;;;;;;;;;;21154546;28;20210;-75
2022/07/16 22:32:25;;;;;;;2.38;0.70;;;;;;;;;;21152464;28;20264;-76
2022/07/16 22:42:27;;;;;;;0.38;0.20;;;;;;;;;;21152488;28;20195;-76
2022/07/16 22:52:29;;;;;;;2.38;0.60;;;;;;;;;;21160420;28;20202;-76
2022/07/16 23:02:30;;;;;;;1.85;0.40;;;;;;;;;;21168539;28;20248;-76
2022/07/16 23:12:32;;;;;;;0.90;0.70;;;;;;;;;;21169649;28;20232;-76
2022/07/16 23:22:34;;;;;;;1.08;0.30;;;;;;;;;;21165793;28;20271;-76
2022/07/16 23:32:36;;;;;;;2.20;0.32;;;;;;;;;;21167166;28;20263;-76
2022/07/16 23:42:37;;;;;;;0.88;0.50;;;;;;;;;;21167046;28;20199;-76
2022/07/16 23:52:39;;;;;;;3.90;0.50;;;;;;;;;;21164672;28;20220;-76
